Time;durP1;ratioP1;P1;durP2;ratioP2;P2;SDS_P1;SDS_P2;PMS_P1;PMS_P2;Temp;Humidity;BMP_temperature;BMP_pressure;BME280_temperature;BME280_humidity;BME280_pressure;Samples;Min_cycle;Max_cycle;Signal;HPM_P1;HPM_P2
2022/02/20 00:01:59;;;;;;;18.40;4.40;;;;;;;1.78;58.64;99987.13;105586;1273;25277;-59
2022/02/20 00:04:31;;;;;;;17.70;2.80;;;;;;;1.80;58.63;99984.19;105543;1272;25348;-59
2022/02/20 00:07:02;;;;;;;18.30;3.60;;;;;;;1.82;58.67;99982.03;105527;1273;25602;-59
2022/02/20 00:09:33;;;;;;;14.70;2.30;;;;;;;1.83;58.80;99974.77;105521;1273;24325;-59
2022/02/20 00:12:05;;;;;;;18.70;3.00;;;;;;;1.85;58.88;99965.68;105534;1273;25276;-59
2022/02/20 00:14:38;;;;;;;17.50;3.50;;;;;;;1.88;58.75;99962.54;105612;1273;24478;-59
2022/02/20 00:17:09;;;;;;;17.80;3.00;;;;;;;1.90;58.80;99955.51;105621;1273;25692;-59
2022/02/20 00:19:42;;;;;;;16.80;3.40;;;;;;;1.91;58.97;99954.47;105619;1273;25417;-59
2022/02/20 00:22:13;;;;;;;15.10;3.20;;;;;;;1.93;58.93;99954.10;105599;1273;22554;-59
2022/02/20 00:24:44;;;;;;;14.20;2.90;;;;;;;1.95;59.01;99958.45;105740;1273;24328;-58
2022/02/20 00:27:15;;;;;;;17.30;3.10;;;;;;;1.96;59.08;99957.80;105576;1273;25496;-60
2022/02/20 00:29:47;;;;;;;12.60;2.10;;;;;;;1.97;58.96;99953.13;105599;1273;22557;-59
2022/02/20 00:32:18;;;;;;;16.50;2.40;;;;;;;1.99;59.13;99950.10;105707;1273;23017;-60
2022/02/20 00:34:50;;;;;;;14.90;2.00;;;;;;;2.02;59.23;99948.70;106009;1273;25266;-59
2022/02/20 00:37:21;;;;;;;9.00;1.50;;;;;;;2.06;59.25;99946.55;105618;1272;22548;-59
2022/02/20 00:39:53;;;;;;;7.40;1.20;;;;;;;2.12;59.17;99947.13;105620;1273;24332;-58
2022/02/20 00:42:24;;;;;;;10.50;1.70;;;;;;;2.18;59.17;99946.60;105567;1273;24282;-60
2022/02/20 00:44:55;;;;;;;11.60;1.60;;;;;;;2.24;59.20;99944.31;105615;1273;22579;-59
2022/02/20 00:47:26;;;;;;;10.90;1.40;;;;;;;2.31;59.07;99941.39;105626;1273;24240;-59
2022/02/20 00:49:57;;;;;;;11.20;1.40;;;;;;;2.40;59.08;99937.48;105656;1273;22735;-59
2022/02/20 00:52:28;;;;;;;12.30;2.10;;;;;;;2.45;58.96;99928.70;105575;1273;22541;-58
2022/02/20 00:54:59;;;;;;;9.90;1.60;;;;;;;2.51;58.99;99925.33;105565;1273;22621;-59
2022/02/20 00:57:30;;;;;;;11.10;1.30;;;;;;;2.55;58.80;99920.51;105587;1273;24231;-59
2022/02/20 01:00:02;;;;;;;8.20;1.30;;;;;;;2.58;58.87;99914.11;105571;1274;24411;-58
2022/02/20 01:02:33;;;;;;;13.50;1.30;;;;;;;2.61;58.89;99908.30;105520;1273;22540;-60
2022/02/20 01:05:05;;;;;;;13.50;1.60;;;;;;;2.64;58.92;99900.43;105613;1273;24423;-59
2022/02/20 01:07:36;;;;;;;9.50;1.60;;;;;;;2.65;58.89;99891.26;105526;1273;25384;-59
2022/02/20 01:10:11;;;;;;;12.60;1.50;;;;;;;2.67;58.98;99894.27;105552;1273;22738;-59
2022/02/20 01:12:42;;;;;;;8.00;1.30;;;;;;;2.70;58.82;99889.55;105913;1273;22538;-59
2022/02/20 01:15:15;;;;;;;9.50;1.50;;;;;;;2.73;58.90;99886.33;105637;1273;23220;-60
2022/02/20 01:17:46;;;;;;;8.30;1.50;;;;;;;2.75;58.98;99882.18;105731;1273;22614;-59
2022/02/20 01:20:18;;;;;;;10.60;1.40;;;;;;;2.77;58.89;99878.20;105573;1273;25684;-59
2022/02/20 01:22:50;;;;;;;11.10;1.40;;;;;;;2.77;59.07;99872.19;105757;1273;25831;-58
2022/02/20 01:25:21;;;;;;;10.10;1.40;;;;;;;2.77;58.98;99868.02;105662;1273;22538;-59
2022/02/20 01:27:53;;;;;;;12.70;2.00;;;;;;;2.78;59.08;99869.26;105507;1273;22596;-59
2022/02/20 01:30:24;;;;;;;10.10;1.10;;;;;;;2.80;58.92;99867.46;105633;1273;24409;-59
2022/02/20 01:32:55;;;;;;;16.30;1.30;;;;;;;2.83;58.92;99862.65;105759;1273;24007;-58
2022/02/20 01:35:27;;;;;;;7.80;0.90;;;;;;;2.86;58.84;99859.02;105601;1273;25499;-59
2022/02/20 01:37:58;;;;;;;9.00;1.10;;;;;;;2.89;58.91;99856.43;105563;1273;22542;-59
2022/02/20 01:40:30;;;;;;;9.40;1.80;;;;;;;2.89;58.79;99848.23;105532;1273;22766;-59
2022/02/20 01:43:02;;;;;;;11.50;1.30;;;;;;;2.90;58.86;99840.31;105624;1273;25482;-58
2022/02/20 01:45:33;;;;;;;9.20;1.40;;;;;;;2.91;58.99;99834.55;105574;1273;25690;-60
2022/02/20 01:48:05;;;;;;;12.40;1.40;;;;;;;2.90;59.06;99827.87;105574;1273;22676;-59
2022/02/20 01:50:37;;;;;;;10.80;1.40;;;;;;;2.90;59.00;99828.96;105606;1273;22606;-59
2022/02/20 01:53:08;;;;;;;13.20;1.30;;;;;;;2.90;59.03;99824.73;105594;1273;22634;-58
2022/02/20 01:55:39;;;;;;;12.50;1.40;;;;;;;2.89;59.12;99830.73;105563;1273;22543;-60
2022/02/20 01:58:10;;;;;;;10.40;2.10;;;;;;;2.89;59.28;99821.91;105520;1273;22696;-59
2022/02/20 02:00:42;;;;;;;15.00;1.50;;;;;;;2.88;59.17;99815.86;105625;1273;22768;-58
2022/02/20 02:03:15;;;;;;;7.00;1.30;;;;;;;2.88;59.20;99811.56;105622;1273;25337;-58
2022/02/20 02:05:47;;;;;;;10.10;1.50;;;;;;;2.87;59.13;99809.77;105699;1273;22729;-59
2022/02/20 02:08:19;;;;;;;9.20;1.00;;;;;;;2.86;59.32;99809.55;105586;1273;24582;-59
2022/02/20 02:10:51;;;;;;;11.10;1.20;;;;;;;2.87;59.17;99805.90;105516;1273;24263;-60
2022/02/20 02:13:22;;;;;;;12.20;1.60;;;;;;;2.88;59.28;99797.85;105650;1273;22560;-59
2022/02/20 02:15:55;;;;;;;11.10;1.00;;;;;;;2.89;59.24;99791.36;105520;1273;24312;-59
2022/02/20 02:18:26;;;;;;;10.40;1.20;;;;;;;2.88;59.30;99781.55;105518;1273;24308;-60
2022/02/20 02:20:57;;;;;;;11.60;1.60;;;;;;;2.87;59.30;99773.86;105514;1273;25220;-61
2022/02/20 02:23:28;;;;;;;7.90;1.20;;;;;;;2.88;59.23;99770.45;105555;1273;24312;-59
2022/02/20 02:25:59;;;;;;;7.50;1.00;;;;;;;2.88;59.19;99764.67;105560;1273;24268;-59
2022/02/20 02:28:34;;;;;;;10.70;1.10;;;;;;;2.90;59.21;99762.73;105565;1273;22654;-59
2022/02/20 02:31:05;;;;;;;9.40;1.50;;;;;;;2.93;59.17;99759.10;105520;1273;24381;-58
2022/02/20 02:33:37;;;;;;;6.20;1.00;;;;;;;2.95;59.10;99753.77;105543;1273;24524;-59
2022/02/20 02:36:09;;;;;;;7.00;1.00;;;;;;;2.97;58.91;99749.37;105683;1273;22555;-59
2022/02/20 02:38:41;;;;;;;8.50;1.10;;;;;;;3.01;58.74;99747.36;105638;1273;22702;-58
2022/02/20 02:41:12;;;;;;;8.20;1.20;;;;;;;3.05;58.79;99747.09;105547;1273;25516;-60
2022/02/20 02:43:43;;;;;;;12.70;1.50;;;;;;;3.09;58.52;99739.80;105697;1273;22555;-60
2022/02/20 02:46:15;;;;;;;11.40;1.20;;;;;;;3.12;58.60;99734.56;105945;1273;22557;-59
2022/02/20 02:48:50;;;;;;;8.80;1.10;;;;;;;3.14;58.55;99730.65;105661;1273;22545;-59
2022/02/20 02:51:22;;;;;;;8.70;1.20;;;;;;;3.16;58.47;99720.73;105622;1273;25636;-59
2022/02/20 02:53:54;;;;;;;8.90;1.20;;;;;;;3.18;58.38;99721.00;105566;1273;22761;-60
2022/02/20 02:56:26;;;;;;;5.90;0.90;;;;;;;3.19;58.37;99709.23;105675;1273;22586;-57
2022/02/20 02:58:57;;;;;;;10.80;1.20;;;;;;;3.21;58.32;99702.93;105578;1273;22543;-60
2022/02/20 03:01:28;;;;;;;6.00;1.00;;;;;;;3.22;58.33;99697.98;105548;1273;24435;-60
2022/02/20 03:03:59;;;;;;;10.20;1.00;;;;;;;3.24;58.17;99696.59;105495;1273;22945;-59
2022/02/20 03:06:30;;;;;;;8.40;0.90;;;;;;;3.26;58.12;99692.28;105588;1273;24304;-59
2022/02/20 03:09:01;;;;;;;5.00;0.90;;;;;;;3.28;57.96;99679.54;106107;1261;24644;-56
2022/02/20 03:11:33;;;;;;;8.60;0.80;;;;;;;3.31;57.79;99669.11;105593;1271;22544;-56
2022/02/20 03:14:05;;;;;;;6.80;1.00;;;;;;;3.36;57.79;99662.26;105727;1273;22538;-59
2022/02/20 03:16:36;;;;;;;6.60;1.00;;;;;;;3.38;57.72;99655.09;105679;1273;22580;-57
2022/02/20 03:19:09;;;;;;;7.30;1.10;;;;;;;3.41;57.55;99649.23;105618;1274;22558;-57
2022/02/20 03:21:40;;;;;;;8.60;0.90;;;;;;;3.44;57.39;99645.52;105886;1273;24221;-58
2022/02/20 03:24:11;;;;;;;6.80;0.70;;;;;;;3.46;57.41;99643.45;105599;1274;22710;-58
2022/02/20 03:26:43;;;;;;;11.30;1.00;;;;;;;3.49;57.22;99638.09;105824;1273;25411;-58
2022/02/20 03:29:15;;;;;;;8.10;1.40;;;;;;;3.51;57.08;99635.51;105526;1274;24307;-57
2022/02/20 03:31:46;;;;;;;8.70;0.80;;;;;;;3.54;56.91;99640.84;105662;1273;23459;-57
2022/02/20 03:34:17;;;;;;;8.10;1.10;;;;;;;3.56;56.92;99640.45;105671;1273;22560;-57
2022/02/20 03:36:48;;;;;;;8.80;1.10;;;;;;;3.58;56.71;99632.89;105715;1273;22672;-59
2022/02/20 03:39:20;;;;;;;8.10;0.80;;;;;;;3.60;56.76;99634.30;105501;1274;22551;-58
2022/02/20 03:41:51;;;;;;;8.50;0.70;;;;;;;3.63;56.61;99633.03;105737;1273;22586;-58
2022/02/20 03:44:22;;;;;;;6.10;0.90;;;;;;;3.65;56.58;99639.89;105654;1273;24294;-57
2022/02/20 03:46:54;;;;;;;7.60;0.80;;;;;;;3.68;56.33;99633.73;105618;1274;24360;-59
2022/02/20 03:49:26;;;;;;;8.70;1.00;;;;;;;3.73;56.20;99629.94;105919;1273;22567;-58
2022/02/20 03:51:58;;;;;;;6.20;0.70;;;;;;;3.78;56.15;99627.36;105663;1273;22545;-58
2022/02/20 03:54:29;;;;;;;7.70;0.70;;;;;;;3.83;56.04;99627.77;106080;1273;24295;-57
2022/02/20 03:57:00;;;;;;;5.90;0.70;;;;;;;3.85;55.81;99629.64;105595;1273;22570;-57
2022/02/20 03:59:31;;;;;;;4.80;0.80;;;;;;;3.86;55.65;99629.86;105544;1273;25421;-58
2022/02/20 04:02:03;;;;;;;6.40;1.00;;;;;;;3.87;55.79;99626.59;105830;1273;22582;-56
2022/02/20 04:04:34;;;;;;;6.70;0.60;;;;;;;3.86;55.67;99622.67;105825;1273;22566;-57
2022/02/20 04:07:06;;;;;;;6.00;0.90;;;;;;;3.85;55.88;99615.77;105569;1274;24253;-55
2022/02/20 04:09:37;;;;;;;9.10;0.80;;;;;;;3.86;55.66;99621.42;105774;1273;22723;-57
2022/02/20 04:12:09;;;;;;;7.90;1.20;;;;;;;3.85;56.08;99618.83;105343;1273;255650;-57
2022/02/20 04:14:39;;;;;;;5.10;0.60;;;;;;;3.84;55.80;99622.27;105705;1273;23016;-58
2022/02/20 04:17:11;;;;;;;8.70;0.80;;;;;;;3.82;55.86;99620.28;105595;1273;27067;-57
2022/02/20 04:19:42;;;;;;;5.80;0.60;;;;;;;3.82;56.25;99622.65;105546;1273;22563;-58
2022/02/20 04:22:13;;;;;;;7.60;0.70;;;;;;;3.84;56.48;99626.71;105583;1272;22561;-57
2022/02/20 04:24:45;;;;;;;7.00;0.60;;;;;;;3.85;57.48;99627.91;105702;1273;24229;-58
2022/02/20 04:27:17;;;;;;;11.10;0.70;;;;;;;3.84;58.56;99636.22;105655;1273;24496;-59
2022/02/20 04:29:48;;;;;;;4.00;0.60;;;;;;;3.78;60.28;99642.35;105510;1273;24305;-57
2022/02/20 04:32:19;;;;;;;4.60;0.60;;;;;;;3.67;62.13;99642.68;105555;1273;22660;-58
2022/02/20 04:34:50;;;;;;;5.90;0.50;;;;;;;3.51;63.20;99644.02;105655;1273;25600;-58
2022/02/20 04:37:22;;;;;;;8.00;1.20;;;;;;;3.34;63.57;99638.98;105769;1273;24257;-56
2022/02/20 04:39:53;;;;;;;5.10;0.70;;;;;;;3.19;64.97;99638.52;105590;1274;25263;-58
2022/02/20 04:42:24;;;;;;;7.00;0.70;;;;;;;3.05;65.66;99633.86;105549;1274;26732;-58
2022/02/20 04:44:55;;;;;;;4.70;0.50;;;;;;;2.91;66.62;99628.15;105490;1273;22631;-57
2022/02/20 04:47:28;;;;;;;4.80;0.50;;;;;;;2.80;66.58;99626.93;105559;1272;24342;-60
2022/02/20 04:49:59;;;;;;;7.90;0.70;;;;;;;2.72;67.03;99621.52;105636;1273;22703;-62
2022/02/20 04:52:29;;;;;;;5.80;0.70;;;;;;;2.64;67.15;99616.02;105564;1273;24333;-60
2022/02/20 04:55:01;;;;;;;4.30;0.60;;;;;;;2.57;67.44;99614.59;105516;1273;22563;-59
2022/02/20 04:57:36;;;;;;;7.40;0.50;;;;;;;2.52;67.20;99611.98;105565;1273;22563;-60
2022/02/20 05:00:10;;;;;;;5.20;0.50;;;;;;;2.48;67.43;99606.59;105656;1273;22560;-58
2022/02/20 05:02:42;;;;;;;5.60;0.70;;;;;;;2.44;67.76;99602.44;105712;1273;25487;-60
2022/02/20 05:05:13;;;;;;;5.70;0.60;;;;;;;2.42;67.90;99594.81;105553;1273;22554;-57
2022/02/20 05:07:44;;;;;;;12.70;1.10;;;;;;;2.40;67.91;99585.36;105549;1273;23075;-58
2022/02/20 05:10:15;;;;;;;6.30;0.70;;;;;;;2.37;68.27;99582.50;105527;1273;25748;-59
2022/02/20 05:12:46;;;;;;;5.50;0.60;;;;;;;2.34;68.44;99575.27;105505;1273;22599;-58
2022/02/20 05:15:17;;;;;;;6.80;0.80;;;;;;;2.33;68.46;99571.71;105583;1273;22565;-58
2022/02/20 05:17:48;;;;;;;6.10;0.80;;;;;;;2.33;68.83;99567.68;105738;1273;22542;-59
2022/02/20 05:20:20;;;;;;;5.50;0.50;;;;;;;2.33;69.11;99561.02;105663;1273;22995;-57
2022/02/20 05:22:51;;;;;;;5.50;0.90;;;;;;;2.33;69.30;99558.33;105658;1273;22853;-59
2022/02/20 05:25:23;;;;;;;9.80;1.30;;;;;;;2.34;69.47;99559.63;105558;1273;22551;-58
2022/02/20 05:27:54;;;;;;;9.10;0.90;;;;;;;2.36;69.60;99560.44;105730;1274;22562;-58
2022/02/20 05:30:25;;;;;;;7.60;1.50;;;;;;;2.38;69.66;99552.25;105576;1273;25406;-58
2022/02/20 05:32:56;;;;;;;8.60;1.00;;;;;;;2.41;70.00;99549.05;105517;1273;25450;-59
2022/02/20 05:35:27;;;;;;;5.90;1.10;;;;;;;2.42;70.12;99551.80;105519;1273;23046;-61
2022/02/20 05:37:58;;;;;;;7.30;1.20;;;;;;;2.44;70.21;99550.09;105609;1272;25564;-59
2022/02/20 05:40:29;;;;;;;5.60;1.20;;;;;;;2.46;70.44;99546.84;105528;1273;22549;-58
2022/02/20 05:43:00;;;;;;;9.00;1.30;;;;;;;2.44;70.57;99538.52;105490;1273;22580;-58
2022/02/20 05:45:32;;;;;;;7.00;1.30;;;;;;;2.42;70.77;99534.58;105641;1273;24297;-58
2022/02/20 05:48:04;;;;;;;10.60;2.20;;;;;;;2.42;71.11;99536.33;105726;1273;22553;-59
2022/02/20 05:50:35;;;;;;;6.60;0.90;;;;;;;2.39;70.93;99536.81;105536;1273;22631;-57
2022/02/20 05:53:06;;;;;;;6.20;0.90;;;;;;;2.40;71.07;99537.09;105695;1273;22543;-58
2022/02/20 05:55:37;;;;;;;6.50;1.10;;;;;;;2.40;71.21;99533.88;105724;1273;25325;-58
2022/02/20 05:58:08;;;;;;;5.80;0.90;;;;;;;2.40;71.31;99531.74;105558;1273;25363;-58
2022/02/20 06:00:39;;;;;;;7.00;0.80;;;;;;;2.42;71.48;99528.92;105500;1273;22563;-60
2022/02/20 06:03:11;;;;;;;4.80;0.80;;;;;;;2.41;71.85;99526.37;105551;1273;23170;-58
2022/02/20 06:05:43;;;;;;;6.00;1.10;;;;;;;2.38;71.86;99527.40;105544;1273;22557;-57
2022/02/20 06:08:14;;;;;;;3.70;0.70;;;;;;;2.37;71.87;99522.45;105598;1273;25352;-58
2022/02/20 06:10:46;;;;;;;4.40;1.00;;;;;;;2.37;72.08;99518.91;105523;1273;22589;-59
2022/02/20 06:13:20;;;;;;;7.60;1.20;;;;;;;2.38;72.03;99512.77;105602;1272;24253;-60
2022/02/20 06:15:51;;;;;;;8.90;1.40;;;;;;;2.41;72.19;99514.48;105698;1273;22622;-60
2022/02/20 06:18:23;;;;;;;10.30;1.40;;;;;;;2.42;72.32;99514.59;105812;1273;22575;-59
2022/02/20 06:20:54;;;;;;;7.50;1.50;;;;;;;2.43;72.51;99510.14;105624;1273;22557;-58
2022/02/20 06:23:27;;;;;;;7.20;1.10;;;;;;;2.46;72.57;99514.86;105650;1273;22621;-57
2022/02/20 06:25:58;;;;;;;6.20;1.10;;;;;;;2.49;72.67;99514.55;105676;1273;25368;-57
2022/02/20 06:28:29;;;;;;;5.20;1.10;;;;;;;2.51;72.65;99516.46;106090;1273;22579;-56
2022/02/20 06:31:01;;;;;;;4.30;1.10;;;;;;;2.54;72.80;99517.92;105430;1274;25561;-58
2022/02/20 06:33:32;;;;;;;3.10;0.90;;;;;;;2.56;72.95;99519.21;105923;1274;22642;-59
2022/02/20 06:36:03;;;;;;;3.60;0.80;;;;;;;2.58;73.05;99518.05;105534;1273;24386;-57
2022/02/20 06:38:34;;;;;;;4.10;0.70;;;;;;;2.57;73.33;99514.75;105563;1273;25548;-57
2022/02/20 06:41:09;;;;;;;2.90;0.50;;;;;;;2.58;73.43;99511.98;105715;1273;22628;-58
2022/02/20 06:43:41;;;;;;;3.50;0.40;;;;;;;2.57;73.83;99509.49;105957;1273;22669;-59
2022/02/20 06:46:12;;;;;;;3.60;0.50;;;;;;;2.57;73.85;99505.48;105763;1274;22554;-57
2022/02/20 06:48:44;;;;;;;3.40;0.40;;;;;;;2.56;73.86;99503.91;105730;1273;24296;-57
2022/02/20 06:51:15;;;;;;;1.20;0.40;;;;;;;2.59;74.07;99505.02;105686;1274;22546;-57
2022/02/20 06:53:47;;;;;;;1.10;0.30;;;;;;;2.60;74.32;99508.68;105884;1273;22570;-59
2022/02/20 06:56:18;;;;;;;2.90;0.40;;;;;;;2.63;74.45;99510.88;106012;1273;22551;-57
2022/02/20 06:58:49;;;;;;;1.80;0.40;;;;;;;2.64;74.57;99505.27;105712;1273;25573;-57
2022/02/20 07:01:21;;;;;;;1.50;0.30;;;;;;;2.65;75.09;99501.04;105768;1273;22557;-59
2022/02/20 07:03:52;;;;;;;1.60;0.20;;;;;;;2.66;75.01;99501.00;105795;1273;22553;-57
2022/02/20 07:06:26;;;;;;;1.20;0.30;;;;;;;2.68;75.18;99496.84;105609;1274;25181;-56
2022/02/20 07:08:57;;;;;;;1.70;0.20;;;;;;;2.70;75.14;99498.27;105611;1273;22570;-57
2022/02/20 07:11:29;;;;;;;1.40;0.30;;;;;;;2.72;75.27;99497.59;105712;1273;22538;-57
2022/02/20 07:14:00;;;;;;;2.20;0.40;;;;;;;2.75;75.32;99500.08;105756;1273;22871;-58
2022/02/20 07:16:31;;;;;;;2.00;0.30;;;;;;;2.77;75.37;99491.26;105856;1273;22581;-58
2022/02/20 07:19:02;;;;;;;1.30;0.40;;;;;;;2.81;75.38;99484.67;105845;1273;22574;-59
2022/02/20 07:21:34;;;;;;;2.20;0.40;;;;;;;2.85;75.64;99481.53;105701;1273;24716;-56
2022/02/20 07:24:06;;;;;;;1.60;0.30;;;;;;;2.89;75.59;99481.40;105628;1273;22614;-57
2022/02/20 07:26:38;;;;;;;2.30;0.30;;;;;;;2.93;75.48;99479.47;105822;1273;22575;-59
2022/02/20 07:29:09;;;;;;;2.80;0.40;;;;;;;2.96;75.42;99482.66;105594;1273;23199;-58
2022/02/20 07:31:40;;;;;;;2.60;0.40;;;;;;;3.00;75.46;99480.71;105656;1274;22571;-58
2022/02/20 07:34:11;;;;;;;2.80;0.40;;;;;;;3.06;75.56;99484.38;105547;1273;23444;-61
2022/02/20 07:36:42;;;;;;;2.60;0.40;;;;;;;3.10;75.59;99500.84;105780;1273;25517;-57
2022/02/20 07:39:15;;;;;;;5.50;0.50;;;;;;;3.14;75.72;99501.18;105571;1273;22547;-59
2022/02/20 07:41:47;;;;;;;2.20;0.30;;;;;;;3.18;75.67;99491.38;105405;1273;22570;-58
2022/02/20 07:44:18;;;;;;;3.50;0.40;;;;;;;3.20;75.74;99489.38;105505;1273;22542;-58
2022/02/20 07:46:50;;;;;;;2.40;0.30;;;;;;;3.24;75.80;99490.81;105545;1273;25564;-58
2022/02/20 07:49:22;;;;;;;1.40;0.30;;;;;;;3.27;75.57;99492.59;105680;1273;22622;-57
2022/02/20 07:51:53;;;;;;;2.40;0.30;;;;;;;3.32;75.70;99490.39;105713;1273;25312;-56
2022/02/20 07:54:25;;;;;;;2.90;0.30;;;;;;;3.35;75.97;99496.02;105590;1272;23363;-57
2022/02/20 07:56:56;;;;;;;3.00;0.50;;;;;;;3.40;75.83;99497.13;105630;1273;24264;-58
2022/02/20 07:59:27;;;;;;;4.30;0.40;;;;;;;3.44;75.81;99500.39;105574;1273;22789;-61
2022/02/20 08:01:58;;;;;;;2.50;0.40;;;;;;;3.49;75.90;99503.82;105731;1273;24249;-60
2022/02/20 08:04:30;;;;;;;2.70;0.40;;;;;;;3.53;75.98;99508.08;105869;1273;24306;-59
2022/02/20 08:07:04;;;;;;;1.20;0.20;;;;;;;3.55;75.74;99505.70;105673;1274;25574;-58
2022/02/20 08:09:35;;;;;;;2.30;0.40;;;;;;;3.58;75.80;99509.72;105657;1274;24228;-59
2022/02/20 08:12:09;;;;;;;2.10;0.30;;;;;;;3.60;75.83;99508.54;105680;1273;22541;-62
2022/02/20 08:14:40;;;;;;;3.80;0.40;;;;;;;3.64;75.95;99513.53;105761;1273;22544;-59
2022/02/20 08:17:12;;;;;;;3.00;0.40;;;;;;;3.68;76.40;99518.02;105461;1273;24256;-61
2022/02/20 08:38:47;;;;;;;2.40;0.30;;;;;;;4.02;76.74;99541.45;105497;1273;22677;-57
2022/02/20 08:41:19;;;;;;;1.90;0.30;;;;;;;4.08;76.58;99547.45;105470;1273;22562;-54
2022/02/20 08:43:51;;;;;;;2.80;0.40;;;;;;;4.13;76.72;99554.70;105621;1273;23166;-58
2022/02/20 08:46:22;;;;;;;3.40;0.30;;;;;;;4.17;76.60;99561.11;105539;1271;22578;-56
2022/02/20 08:48:53;;;;;;;3.20;0.40;;;;;;;4.19;76.66;99561.80;105853;1273;22571;-55
2022/02/20 08:51:25;;;;;;;4.50;0.50;;;;;;;4.21;76.71;99563.87;105728;1273;23117;-56
2022/02/20 08:53:57;;;;;;;2.50;0.50;;;;;;;4.23;76.88;99570.36;105522;1273;22624;-57
2022/02/20 08:56:29;;;;;;;1.40;0.30;;;;;;;4.24;77.05;99578.45;105607;1273;23217;-58
2022/02/20 08:59:02;;;;;;;2.00;0.30;;;;;;;4.24;77.20;99579.85;105629;1273;25715;-57
2022/02/20 09:01:35;;;;;;;2.50;0.30;;;;;;;4.24;77.63;99577.64;105671;1274;25434;-58
2022/02/20 09:04:07;;;;;;;2.20;0.30;;;;;;;4.24;77.76;99581.05;105647;1273;25527;-58
2022/02/20 09:06:39;;;;;;;2.20;0.30;;;;;;;4.24;77.75;99581.77;105753;1273;23140;-56
2022/02/20 09:09:12;;;;;;;3.00;0.40;;;;;;;4.24;77.88;99587.35;105646;1273;22560;-56
2022/02/20 09:11:43;;;;;;;2.80;0.30;;;;;;;4.25;78.12;99589.69;105622;1272;25368;-55
2022/02/20 09:14:14;;;;;;;2.80;0.40;;;;;;;4.25;78.83;99589.42;105640;1273;22586;-57
2022/02/20 09:16:46;;;;;;;3.10;0.40;;;;;;;4.26;78.77;99595.67;105679;1273;24223;-57
2022/02/20 09:19:18;;;;;;;3.80;0.40;;;;;;;4.26;78.88;99602.58;105547;1273;24292;-58
2022/02/20 09:21:50;;;;;;;3.10;0.40;;;;;;;4.27;78.91;99602.46;105520;1273;22574;-59
2022/02/20 09:24:22;;;;;;;4.10;0.50;;;;;;;4.28;78.89;99603.61;105714;1273;22561;-60
2022/02/20 09:26:55;;;;;;;5.20;0.60;;;;;;;4.30;78.95;99606.72;105733;1273;24269;-58
2022/02/20 09:29:26;;;;;;;1.90;0.40;;;;;;;4.31;79.03;99612.67;105591;1274;26053;-58
2022/02/20 09:31:59;;;;;;;3.20;0.60;;;;;;;4.32;79.03;99613.98;105494;1273;24293;-59
2022/02/20 09:34:31;;;;;;;4.10;0.60;;;;;;;4.33;78.99;99612.27;105878;1273;25321;-59
2022/02/20 09:37:02;;;;;;;2.40;0.50;;;;;;;4.36;79.19;99613.98;105596;1274;24463;-57
2022/02/20 09:39:34;;;;;;;4.40;0.60;;;;;;;4.39;79.22;99621.60;105730;1273;25308;-56
2022/02/20 09:42:09;;;;;;;3.20;0.50;;;;;;;4.43;78.98;99620.83;105772;1273;24609;-61
2022/02/20 09:44:42;;;;;;;4.90;0.60;;;;;;;4.46;79.28;99625.55;106113;1273;25257;-57
2022/02/20 09:47:16;;;;;;;6.40;0.70;;;;;;;4.49;79.36;99629.52;105782;1273;25431;-55
2022/02/20 09:49:50;;;;;;;7.70;0.80;;;;;;;4.52;79.52;99626.95;105862;1273;26617;-56
2022/02/20 09:52:36;;;;;;;3.40;0.70;;;;;;;4.58;79.31;99631.38;105702;1273;22670;-59
2022/02/20 09:55:09;;;;;;;5.80;1.00;;;;;;;4.65;79.33;99638.30;105726;1273;22616;-61
2022/02/20 09:57:41;;;;;;;8.20;1.30;;;;;;;4.72;79.27;99644.65;105606;1273;25534;-58
2022/02/20 10:00:17;;;;;;;8.30;1.20;;;;;;;4.78;79.37;99643.39;105587;1273;22862;-61
2022/02/20 10:02:50;;;;;;;5.40;0.70;;;;;;;4.86;79.20;99646.80;105801;1273;22541;-62
2022/02/20 10:05:24;;;;;;;9.60;1.00;;;;;;;4.93;79.29;99652.52;105799;1273;22556;-63
2022/02/20 10:07:56;;;;;;;6.10;1.20;;;;;;;5.00;79.26;99654.77;105597;1273;22709;-62
2022/02/20 10:10:34;;;;;;;5.90;1.00;;;;;;;5.08;79.35;99647.91;106026;1273;25363;-63
2022/02/20 10:13:06;;;;;;;6.30;1.00;;;;;;;5.17;79.10;99644.16;105686;1273;24275;-63
2022/02/20 10:15:40;;;;;;;9.30;1.40;;;;;;;5.24;79.17;99644.08;105596;1273;22696;-63
2022/02/20 10:18:15;;;;;;;6.00;1.00;;;;;;;5.34;79.05;99645.28;105681;1273;25322;-63
2022/02/20 10:20:51;;;;;;;3.20;0.90;;;;;;;5.40;78.88;99645.88;105885;1273;22615;-62
2022/02/20 10:23:22;;;;;;;5.80;1.10;;;;;;;5.46;78.73;99643.41;105872;1273;22578;-60
2022/02/20 10:25:54;;;;;;;9.50;0.90;;;;;;;5.51;78.62;99645.35;107944;1273;22563;-62
2022/02/20 10:28:27;;;;;;;6.70;1.00;;;;;;;5.56;78.49;99641.48;105639;1273;22563;-63
2022/02/20 10:31:00;;;;;;;5.20;0.80;;;;;;;5.62;78.25;99644.47;105726;1273;25381;-63
2022/02/20 10:33:32;;;;;;;9.30;0.80;;;;;;;5.67;78.01;99639.91;105681;1273;25259;-61
2022/02/20 10:36:04;;;;;;;5.50;1.00;;;;;;;5.71;77.80;99640.45;105770;1273;22583;-59
2022/02/20 10:38:39;;;;;;;7.80;1.00;;;;;;;5.75;77.62;99639.80;105740;1273;22543;-65
2022/02/20 10:41:11;;;;;;;4.10;0.70;;;;;;;5.78;77.52;99644.42;105727;1273;22583;-63
2022/02/20 10:43:47;;;;;;;7.10;0.90;;;;;;;5.82;77.17;99643.41;105663;1273;26237;-63
2022/02/20 10:46:21;;;;;;;4.10;0.90;;;;;;;5.87;76.93;99653.09;105701;1274;25064;-64
2022/02/20 10:48:54;;;;;;;9.60;0.80;;;;;;;5.91;76.54;99649.70;105830;1273;23140;-67
2022/02/20 10:51:37;;;;;;;3.90;0.80;;;;;;;5.96;76.66;99645.50;105722;1273;22576;-63
2022/02/20 10:54:09;;;;;;;5.70;0.80;;;;;;;6.00;76.34;99642.88;105612;1273;22647;-64
2022/02/20 10:56:47;;;;;;;4.10;0.50;;;;;;;6.04;76.25;99647.77;105700;1273;22570;-63
2022/02/20 10:59:21;;;;;;;5.00;1.00;;;;;;;6.08;76.23;99644.52;105581;1273;24230;-64
2022/02/20 11:01:52;;;;;;;4.30;1.00;;;;;;;6.12;76.14;99648.42;105709;1273;22556;-62
2022/02/20 11:04:24;;;;;;;5.60;1.20;;;;;;;6.19;75.35;99647.80;105697;1273;25459;-63
2022/02/20 11:06:56;;;;;;;5.10;0.70;;;;;;;6.27;74.95;99649.52;105789;1273;24423;-63
2022/02/20 11:09:29;;;;;;;5.50;0.80;;;;;;;6.33;74.70;99647.16;105588;1273;22587;-62
2022/02/20 11:12:05;;;;;;;3.70;0.60;;;;;;;6.39;74.05;99649.83;105502;1274;22567;-62
2022/02/20 11:14:37;;;;;;;3.90;0.80;;;;;;;6.45;73.34;99648.44;105719;1273;25402;-64
2022/02/20 11:17:10;;;;;;;6.30;0.70;;;;;;;6.50;73.51;99644.94;106969;1273;22602;-63
2022/02/20 11:19:43;;;;;;;3.90;0.70;;;;;;;6.57;73.18;99649.80;105549;1273;22611;-64
2022/02/20 11:22:16;;;;;;;3.70;1.10;;;;;;;6.63;73.11;99643.04;105536;1274;22741;-64
2022/02/20 11:25:11;;;;;;;5.10;0.60;;;;;;;6.68;73.22;99642.41;105753;1273;22559;-63
2022/02/20 11:27:52;;;;;;;6.30;0.90;;;;;;;6.74;72.80;99639.42;105853;1273;23866;-63
2022/02/20 11:30:25;;;;;;;7.60;0.90;;;;;;;6.81;72.74;99639.89;105662;1273;22656;-66
2022/02/20 11:33:01;;;;;;;3.50;0.50;;;;;;;6.94;73.16;99641.56;105890;1273;22571;-63
2022/02/20 11:35:34;;;;;;;5.50;0.70;;;;;;;7.12;73.11;99638.80;106333;1273;25377;-64
2022/02/20 11:38:11;;;;;;;4.20;0.60;;;;;;;7.30;71.79;99641.80;105727;1273;25110;-64
2022/02/20 11:40:59;;;;;;;2.60;0.50;;;;;;;7.44;70.75;99642.55;105676;1273;22784;-62
2022/02/20 11:43:45;;;;;;;2.20;0.50;;;;;;;7.50;70.30;99635.98;105970;1273;22577;-63
2022/02/20 11:46:22;;;;;;;3.90;0.40;;;;;;;7.55;69.73;99641.28;105702;1273;25463;-62
2022/02/20 11:49:30;;;;;;;4.10;0.50;;;;;;;7.60;69.08;99641.96;105837;1273;22697;-64
2022/02/20 11:52:09;;;;;;;1.50;0.40;;;;;;;7.66;68.31;99638.02;105376;1273;22544;-62
2022/02/20 11:54:42;;;;;;;6.10;0.40;;;;;;;7.67;67.28;99635.48;105456;1273;25383;-63
2022/02/20 11:57:26;;;;;;;2.20;0.40;;;;;;;7.67;66.67;99635.02;105493;1273;22571;-62
2022/02/20 12:00:26;;;;;;;5.80;0.60;;;;;;;7.66;66.64;99632.31;105550;1273;23238;-62
2022/02/20 12:03:17;;;;;;;2.60;0.30;;;;;;;7.63;66.56;99631.99;105275;1279;26575;-61
2022/02/20 12:06:26;;;;;;;2.30;0.40;;;;;;;7.60;67.13;99636.50;105086;1279;22604;-61
2022/02/20 12:08:58;;;;;;;4.60;0.50;;;;;;;7.59;67.39;99630.36;105876;1278;25428;-62
2022/02/20 12:11:41;;;;;;;5.90;0.60;;;;;;;7.61;67.24;99627.81;105073;1279;25946;-62
2022/02/20 12:14:22;;;;;;;3.50;0.70;;;;;;;7.65;67.22;99630.46;105120;1279;24156;-61
2022/02/20 12:16:57;;;;;;;2.30;0.50;;;;;;;7.68;66.69;99633.39;105830;1279;22585;-63